Hlavní strana
METAR-TAF:

METAR-TAF

Letiště :

Niamey, Niger

zeměpisná šířka: 13-29N, zeměpisná délka: 002-10E, výška: 223 m

Aktuální stav počasí

Zpráva byla vytvořena před 56 minutami, v 13:00 UTC
Východní vítr 10 kt
Teplota 32°C
Vlhkost vzduchu 9%
Tlak 1016 hPa
Viditelnost 10 km a více
Žádná oblačnost pod 1500 m, nevyskytují se cumulonimby.

METAR: DRRN 101300Z 10010KT CAVOK 32/M05 Q1016 NOSIG

Čas: 14:56 (13:56 UTC)

Předpověď počasí

Zpráva byla vytvořena před 2 hodinami a 56 minutami, v 11:00 UTC
Předpověď platná od 10 v 12 UTC do 11 v 18 UTC
Východní vítr 10 kt
Viditelnost: 8000 m
Pravděpodobnost 40% :
Dočasný
od 10 v 17 UTC do 10 v 20 UTC
Viditelnost: 4500 m
rozsáhlý prach

TAF: DRRN 101100Z 1012/1118 10010KT 8000 NSC PROB40 TEMPO 1017/1020 4500 DU

Stav a předpovědi počasí z více než 4 000 letišť (zprávy METAR a TAF).

Červené a žluté tečky na mapě představují dostupné meteorologické stanice.

Když kurzor umístíte na tečku, zobrazí se název stanice.

Pak kliknutím zobrazíte stav a předpověď počasí.

Chcete-li změnit mapu, kliknutím na zelené tlačítko se znaménkem +mapu přiblížíte, kliknutím na zelené tlačítko se znaménkem – mapu oddálíte a kliknutím na zelené šipky přejdete na sousední mapy.


METAR-TAF: